Time;durP1;ratioP1;P1;durP2;ratioP2;P2;SDS_P1;SDS_P2;PMS_P1;PMS_P2;Temp;Humidity;BMP_temperature;BMP_pressure;BME280_temperature;BME280_humidity;BME280_pressure;Samples;Min_cycle;Max_cycle;Signal;HPM_P1;HPM_P2
2023/01/27 00:01:15;;;;;;;;;;;;;;;1.75;100.00;98053.44;5097847;28;21492;-63
2023/01/27 00:03:43;;;;;;;;;;;;;;;1.49;100.00;98054.25;5101407;28;19967;-63
2023/01/27 00:06:10;;;;;;;;;;;;;;;1.27;100.00;98060.72;5105680;28;19952;-63
2023/01/27 00:08:37;;;;;;;;;;;;;;;1.30;100.00;98047.94;5097638;28;19928;-63
2023/01/27 00:13:48;;;;;;;;;;;;;;;1.13;100.00;98051.19;5097761;28;19924;-63
2023/01/27 00:16:14;;;;;;;;;;;;;;;1.09;100.00;98056.03;5098944;28;19928;-63
2023/01/27 00:18:40;;;;;;;;;;;;;;;1.27;100.00;98055.47;5101401;28;19951;-63
2023/01/27 00:26:36;;;;;;;;;;;;;;;1.32;100.00;98059.09;5097791;28;19946;-64
2023/01/27 00:29:02;;;;;;;;;;;;;;;1.47;100.00;98054.47;5097931;28;19968;-64
2023/01/27 00:34:12;;;;;;;;;;;;;;;1.60;100.00;98059.75;5100176;28;19924;-62
2023/01/27 00:36:41;;;;;;;;;;;;;;;1.55;100.00;98066.59;5102561;28;19920;-63
2023/01/27 00:39:08;;;;;;;;;;;;;;;1.78;100.00;98060.94;5097940;28;19978;-63
2023/01/27 00:41:35;;;;;;;;;;;;;;;1.55;100.00;98070.03;5100783;28;19935;-63
2023/01/27 00:44:03;;;;;;;;;;;;;;;1.65;100.00;98059.13;5100884;28;19924;-62
2023/01/27 00:46:29;;;;;;;;;;;;;;;1.26;100.00;98054.66;5097377;28;19924;-62
2023/01/27 00:48:56;;;;;;;;;;;;;;;1.32;100.00;98047.78;5097203;28;19932;-62
2023/01/27 00:51:23;;;;;;;;;;;;;;;1.34;100.00;98056.25;5099399;28;19924;-63
2023/01/27 00:53:50;;;;;;;;;;;;;;;1.25;100.00;98058.28;5100721;28;19932;-62
2023/01/27 00:56:17;;;;;;;;;;;;;;;1.17;100.00;98055.84;5099136;28;19924;-62
2023/01/27 00:58:43;;;;;;;;;;;;;;;1.15;100.00;98067.56;5097131;28;19929;-62
2023/01/27 01:01:11;;;;;;;;;;;;;;;1.45;100.00;98056.50;5098986;28;19928;-62
2023/01/27 01:03:37;;;;;;;;;;;;;;;1.46;100.00;98063.38;5086351;28;19931;-62
2023/01/27 01:06:05;;;;;;;;;;;;;;;1.79;100.00;98057.31;5109738;28;19988;-62
2023/01/27 01:08:32;;;;;;;;;;;;;;;1.57;100.00;98057.53;5083216;28;19936;-62
2023/01/27 01:11:00;;;;;;;;;;;;;;;1.41;100.00;98078.13;5100564;28;19924;-62
2023/01/27 01:13:27;;;;;;;;;;;;;;;1.36;100.00;98070.03;5083974;28;20019;-63
2023/01/27 01:15:54;;;;;;;;;;;;;;;1.36;100.00;98068.19;5101296;28;19929;-62
2023/01/27 01:18:20;;;;;;;;;;;;;;;1.24;100.00;98067.16;5102947;28;19932;-62
2023/01/27 01:20:47;;;;;;;;;;;;;;;1.30;100.00;98070.84;5104503;28;19955;-62
2023/01/27 01:23:14;;;;;;;;;;;;;;;1.67;100.00;98072.91;5102018;28;19924;-63
2023/01/27 01:25:41;;;;;;;;;;;;;;;1.76;100.00;98082.22;5100669;28;19931;-63
2023/01/27 01:28:09;;;;;;;;;;;;;;;1.86;100.00;98066.00;5100709;28;19921;-63
2023/01/27 01:30:36;;;;;;;;;;;;;;;1.55;100.00;98072.69;5103942;28;19939;-63
2023/01/27 01:33:03;;;;;;;;;;;;;;;1.98;100.00;98074.91;5104248;28;19959;-64
2023/01/27 01:35:30;;;;;;;;;;;;;;;1.80;100.00;98077.34;5104011;28;20428;-64
2023/01/27 01:37:56;;;;;;;;;;;;;;;1.82;100.00;98070.06;5104061;28;19931;-63
2023/01/27 01:40:24;;;;;;;;;;;;;;;1.99;100.00;98073.88;5101667;28;19960;-63
2023/01/27 01:42:54;;;;;;;;;;;;;;;2.14;100.00;98070.03;5100434;28;19928;-63
2023/01/27 01:45:41;;;;;;;;;;;;;;;2.11;100.00;98066.97;5102317;28;19955;-63
2023/01/27 01:48:11;;;;;;;;;;;;;;;2.15;100.00;98071.66;5103548;28;19935;-63
2023/01/27 01:50:38;;;;;;;;;;;;;;;2.13;100.00;98068.41;5082198;28;19988;-63
2023/01/27 01:53:06;;;;;;;;;;;;;;;2.25;100.00;98062.50;5100363;28;19970;-63
2023/01/27 01:55:34;;;;;;;;;;;;;;;2.31;100.00;98069.59;5098939;28;19931;-63
2023/01/27 01:58:00;;;;;;;;;;;;;;;2.21;100.00;98059.47;5100314;28;19984;-63
2023/01/27 02:00:27;;;;;;;;;;;;;;;2.05;100.00;98060.72;5103075;28;19963;-63
2023/01/27 02:02:55;;;;;;;;;;;;;;;2.04;100.00;98063.56;5103669;28;19920;-63
2023/01/27 02:05:25;;;;;;;;;;;;;;;2.15;100.00;98061.09;5103273;28;19924;-63
2023/01/27 02:07:53;;;;;;;;;;;;;;;2.38;100.00;98060.66;5103537;28;19924;-63
2023/01/27 02:10:20;;;;;;;;;;;;;;;2.29;100.00;98058.44;5101436;28;19946;-63
2023/01/27 02:12:47;;;;;;;;;;;;;;;2.25;100.00;98063.31;5099716;28;19952;-63
2023/01/27 02:15:13;;;;;;;;;;;;;;;2.27;100.00;98053.38;5100935;28;19946;-63
2023/01/27 02:17:40;;;;;;;;;;;;;;;2.35;100.00;98044.44;5103323;28;19924;-63
2023/01/27 02:20:11;;;;;;;;;;;;;;;1.99;100.00;98058.09;5103347;28;19988;-63
2023/01/27 02:22:39;;;;;;;;;;;;;;;2.01;100.00;98056.84;5099547;28;19982;-63
2023/01/27 02:25:10;;;;;;;;;;;;;;;1.93;100.00;98053.63;5099515;28;19924;-63
2023/01/27 02:27:37;;;;;;;;;;;;;;;1.71;100.00;98053.03;5091203;28;19932;-63
2023/01/27 02:30:04;;;;;;;;;;;;;;;1.72;100.00;98061.75;5091191;28;19944;-63
2023/01/27 02:32:31;;;;;;;;;;;;;;;1.98;100.00;98064.38;5073252;28;19935;-63
2023/01/27 02:34:57;;;;;;;;;;;;;;;1.91;100.00;98064.38;5094993;28;20458;-63
2023/01/27 02:37:24;;;;;;;;;;;;;;;1.90;100.00;98059.31;5102726;28;19964;-62
2023/01/27 02:39:51;;;;;;;;;;;;;;;1.72;100.00;98061.75;5102647;28;19956;-62
2023/01/27 02:42:19;;;;;;;;;;;;;;;1.80;100.00;98062.34;5100688;28;19920;-63
2023/01/27 02:44:46;;;;;;;;;;;;;;;1.78;100.00;98056.50;5099050;28;19963;-63
2023/01/27 02:47:13;;;;;;;;;;;;;;;1.69;100.00;98047.19;5099897;28;19960;-63
2023/01/27 02:49:39;;;;;;;;;;;;;;;1.69;100.00;98054.25;5102364;28;19924;-62
2023/01/27 02:52:06;;;;;;;;;;;;;;;1.86;100.00;98058.09;5102385;28;19958;-62
2023/01/27 02:54:32;;;;;;;;;;;;;;;1.97;100.00;98050.41;5090397;28;19951;-62
2023/01/27 02:56:58;;;;;;;;;;;;;;;1.97;100.00;98041.69;5090306;28;19924;-62
2023/01/27 02:59:25;;;;;;;;;;;;;;;1.90;100.00;98041.69;5090281;28;19924;-63
2023/01/27 03:01:52;;;;;;;;;;;;;;;2.02;100.00;98032.16;5090676;28;19925;-62
2023/01/27 03:04:19;;;;;;;;;;;;;;;1.94;100.00;98037.66;5090203;28;19951;-63
2023/01/27 03:06:45;;;;;;;;;;;;;;;1.94;100.00;98047.38;5103816;28;19924;-62
2023/01/27 03:09:11;;;;;;;;;;;;;;;1.92;100.00;98041.50;5099442;28;20018;-62
2023/01/27 03:19:52;;;;;;;;;;;;;;;1.56;100.00;98055.06;5029723;28;20065;-63
2023/01/27 03:22:19;;;;;;;;;;;;;;;1.74;100.00;98050.00;5100129;28;19924;-63
2023/01/27 03:24:45;;;;;;;;;;;;;;;1.64;100.00;98054.84;5101374;28;19931;-64
2023/01/27 03:27:11;;;;;;;;;;;;;;;1.89;100.00;98047.97;5101387;28;19942;-64
2023/01/27 03:29:56;;;;;;;;;;;;;;;2.10;100.00;98042.47;5098523;28;19970;-63
2023/01/27 03:32:26;;;;;;;;;;;;;;;2.20;100.00;98028.88;5100507;28;19924;-63
2023/01/27 03:34:52;;;;;;;;;;;;;;;2.36;100.00;98027.59;5083863;28;19962;-64
2023/01/27 03:48:19;;;;;;;;;;;;;;;2.16;100.00;98041.66;5100644;28;19931;-63
2023/01/27 03:50:51;;;;;;;;;;;;;;;1.83;100.00;98042.69;5098465;28;20516;-63
2023/01/27 03:53:18;;;;;;;;;;;;;;;2.03;100.00;98036.41;5099619;28;19959;-63
2023/01/27 03:55:45;;;;;;;;;;;;;;;1.98;100.00;98036.19;5101493;28;19979;-63
2023/01/27 03:58:18;;;;;;;;;;;;;;;2.15;100.00;98026.03;5100756;28;20003;-63
2023/01/27 04:00:44;;;;;;;;;;;;;;;2.07;100.00;98036.81;5098380;28;19925;-63
2023/01/27 04:08:42;;;;;;;;;;;;;;;1.96;100.00;98024.25;5098093;28;19927;-62
2023/01/27 04:13:52;;;;;;;;;;;;;;;1.74;100.00;98034.22;5101661;28;19966;-62
2023/01/27 04:16:19;;;;;;;;;;;;;;;1.70;100.00;98026.94;5099772;28;19956;-62
2023/01/27 04:18:46;;;;;;;;;;;;;;;1.69;100.00;98026.13;5098064;28;19971;-62
2023/01/27 04:21:13;;;;;;;;;;;;;;;1.92;100.00;98026.50;5098757;28;19920;-62
2023/01/27 04:23:40;;;;;;;;;;;;;;;1.95;100.00;98033.97;5101475;28;19988;-62
2023/01/27 04:26:06;;;;;;;;;;;;;;;1.97;100.00;98024.06;5101459;28;19924;-62
2023/01/27 04:28:33;;;;;;;;;;;;;;;2.16;100.00;98030.31;5097911;28;19925;-62
2023/01/27 04:31:00;;;;;;;;;;;;;;;2.27;100.00;98020.94;5098005;28;19925;-62
2023/01/27 04:33:26;;;;;;;;;;;;;;;2.33;100.00;98026.19;5100530;28;20926;-62
2023/01/27 04:35:53;;;;;;;;;;;;;;;2.30;100.00;98028.44;5108682;28;19924;-63
2023/01/27 04:38:20;;;;;;;;;;;;;;;2.32;100.00;98029.06;5103231;28;19980;-62
2023/01/27 04:40:47;;;;;;;;;;;;;;;2.28;100.00;98028.66;5101594;28;19932;-61
2023/01/27 04:43:13;;;;;;;;;;;;;;;2.37;100.00;98026.59;5102453;28;19966;-61
2023/01/27 04:45:40;;;;;;;;;;;;;;;2.46;100.00;98030.63;5105093;28;19959;-61
2023/01/27 04:48:06;;;;;;;;;;;;;;;2.49;100.00;98036.28;5105039;28;19982;-61
2023/01/27 04:50:34;;;;;;;;;;;;;;;2.36;100.00;98032.88;5101473;28;19947;-63
2023/01/27 04:53:00;;;;;;;;;;;;;;;2.40;100.00;98032.25;5101705;28;19921;-62
2023/01/27 04:55:28;;;;;;;;;;;;;;;2.41;100.00;98041.78;5104122;28;19987;-62
2023/01/27 04:57:54;;;;;;;;;;;;;;;2.05;100.00;98050.19;5104864;28;20007;-62
2023/01/27 05:00:21;;;;;;;;;;;;;;;1.87;100.00;98057.91;5102733;28;19962;-62
2023/01/27 05:02:47;;;;;;;;;;;;;;;1.95;100.00;98049.00;5101343;28;19960;-63
2023/01/27 05:05:14;;;;;;;;;;;;;;;2.07;100.00;98053.41;5107637;28;19924;-62
2023/01/27 05:07:40;;;;;;;;;;;;;;;2.12;100.00;98058.06;5104928;28;19930;-63
2023/01/27 05:10:07;;;;;;;;;;;;;;;2.20;100.00;98059.69;5105006;28;19924;-63
2023/01/27 05:12:35;;;;;;;;;;;;;;;2.10;100.00;98060.13;5083256;28;19924;-62
2023/01/27 05:15:01;;;;;;;;;;;;;;;2.02;100.00;98070.84;5101253;28;19975;-62
2023/01/27 05:17:30;;;;;;;;;;;;;;;2.17;100.00;98066.97;5103909;28;19934;-62
2023/01/27 05:19:57;;;;;;;;;;;;;;;1.89;100.00;98073.50;5104754;28;19959;-62
2023/01/27 05:22:23;;;;;;;;;;;;;;;1.84;100.00;98079.38;5102202;28;19946;-62
2023/01/27 05:24:50;;;;;;;;;;;;;;;1.88;100.00;98083.22;5100863;28;19959;-62
2023/01/27 05:27:16;;;;;;;;;;;;;;;1.99;100.00;98074.69;5102462;28;19935;-63
2023/01/27 05:29:44;;;;;;;;;;;;;;;1.92;100.00;98076.53;5104370;28;19923;-62
2023/01/27 05:32:11;;;;;;;;;;;;;;;1.68;100.00;98074.50;5103885;28;19927;-62
2023/01/27 05:34:37;;;;;;;;;;;;;;;1.62;100.00;98081.41;5101521;28;19924;-62
2023/01/27 05:37:03;;;;;;;;;;;;;;;1.54;100.00;98086.06;5104472;28;19986;-62
2023/01/27 05:39:30;;;;;;;;;;;;;;;1.71;100.00;98073.28;5103710;28;19946;-62
2023/01/27 05:41:56;;;;;;;;;;;;;;;1.60;100.00;98074.72;5104062;28;19988;-62
2023/01/27 05:44:22;;;;;;;;;;;;;;;1.79;100.00;98083.63;5102048;28;19925;-62
2023/01/27 05:46:50;;;;;;;;;;;;;;;1.85;100.00;98096.81;5100172;28;19925;-62
2023/01/27 05:49:16;;;;;;;;;;;;;;;1.80;100.00;98093.13;5101967;28;19975;-63
2023/01/27 05:51:43;;;;;;;;;;;;;;;1.84;100.00;98100.44;5103916;28;19931;-63
2023/01/27 05:54:09;;;;;;;;;;;;;;;1.84;100.00;98092.53;5103575;28;19983;-63
2023/01/27 05:56:36;;;;;;;;;;;;;;;2.13;100.00;98093.94;5082254;28;19950;-63
2023/01/27 05:59:02;;;;;;;;;;;;;;;1.93;100.00;98099.22;5100771;28;19947;-63
2023/01/27 06:01:30;;;;;;;;;;;;;;;1.94;100.00;98098.22;5085565;28;19936;-63
2023/01/27 06:03:58;;;;;;;;;;;;;;;2.11;100.00;98101.22;5104181;28;19967;-63
2023/01/27 06:06:25;;;;;;;;;;;;;;;2.27;100.00;98103.44;5106655;28;19967;-63
2023/01/27 06:08:52;;;;;;;;;;;;;;;2.38;100.00;98108.09;5100750;28;19925;-63
2023/01/27 06:11:19;;;;;;;;;;;;;;;2.06;100.00;98104.50;5102736;28;19959;-63
2023/01/27 06:13:46;;;;;;;;;;;;;;;2.02;100.00;98103.25;5104442;28;19928;-63
2023/01/27 06:16:16;;;;;;;;;;;;;;;1.91;100.00;98101.25;5103293;28;19928;-64
2023/01/27 06:18:42;;;;;;;;;;;;;;;2.04;100.00;98111.75;5100375;28;19928;-64
2023/01/27 06:21:10;;;;;;;;;;;;;;;1.85;100.00;98117.88;5101326;28;19928;-62
2023/01/27 06:23:38;;;;;;;;;;;;;;;1.94;100.00;98121.91;5104242;28;19973;-62
2023/01/27 06:26:07;;;;;;;;;;;;;;;1.96;100.00;98122.53;5104415;28;20091;-62
2023/01/27 06:28:34;;;;;;;;;;;;;;;2.02;100.00;98124.34;5100384;28;19947;-63
2023/01/27 06:31:05;;;;;;;;;;;;;;;2.13;100.00;98126.38;5100495;28;19952;-63
2023/01/27 06:33:31;;;;;;;;;;;;;;;2.04;100.00;98124.94;5102868;28;19920;-63
2023/01/27 06:36:00;;;;;;;;;;;;;;;1.75;100.00;98122.72;5090869;28;19946;-63
2023/01/27 06:38:28;;;;;;;;;;;;;;;1.70;100.00;98124.34;5100296;28;19924;-63
2023/01/27 06:40:54;;;;;;;;;;;;;;;1.86;100.00;98122.09;5099934;28;19944;-62
2023/01/27 06:43:21;;;;;;;;;;;;;;;1.86;100.00;98122.09;5101952;28;19924;-63
2023/01/27 06:45:48;;;;;;;;;;;;;;;1.93;100.00;98130.00;5102008;28;19935;-64
2023/01/27 06:48:15;;;;;;;;;;;;;;;1.80;100.00;98124.72;5083569;28;19935;-63
2023/01/27 06:50:41;;;;;;;;;;;;;;;1.90;100.00;98120.69;5099552;28;20503;-63
2023/01/27 06:53:08;;;;;;;;;;;;;;;1.86;100.00;98129.19;5100020;28;19947;-63
2023/01/27 06:55:40;;;;;;;;;;;;;;;1.79;100.00;98131.84;5103235;28;19924;-63
2023/01/27 06:58:06;;;;;;;;;;;;;;;1.55;100.00;98142.94;5102379;28;19972;-64
2023/01/27 07:00:33;;;;;;;;;;;;;;;1.25;100.00;98139.03;5106785;28;19947;-63
2023/01/27 07:02:59;;;;;;;;;;;;;;;1.12;100.00;98137.16;5091795;28;19954;-63
2023/01/27 07:05:26;;;;;;;;;;;;;;;1.13;100.00;98132.72;5095282;28;19920;-64
2023/01/27 07:07:52;;;;;;;;;;;;;;;1.41;100.00;98133.41;5097418;28;19921;-63
2023/01/27 07:10:19;;;;;;;;;;;;;;;1.46;100.00;98133.59;5101440;28;19945;-63
2023/01/27 07:12:46;;;;;;;;;;;;;;;1.34;100.00;98138.66;5099212;28;19988;-63
2023/01/27 07:15:13;;;;;;;;;;;;;;;1.41;100.00;98136.84;5100197;28;19960;-63
2023/01/27 07:17:39;;;;;;;;;;;;;;;1.57;100.00;98138.28;5102746;28;19967;-63
2023/01/27 07:20:07;;;;;;;;;;;;;;;1.76;100.00;98137.50;5102537;28;19947;-63
2023/01/27 07:22:34;;;;;;;;;;;;;;;1.84;100.00;98134.66;5098995;28;19984;-63
2023/01/27 07:25:01;;;;;;;;;;;;;;;2.05;100.00;98134.47;5098537;28;19964;-63
2023/01/27 07:27:28;;;;;;;;;;;;;;;2.13;100.00;98129.00;5101012;28;19966;-63
2023/01/27 07:29:56;;;;;;;;;;;;;;;2.27;100.00;98132.44;5101816;28;19924;-63
2023/01/27 07:32:22;;;;;;;;;;;;;;;2.35;100.00;98129.59;5099479;28;19931;-63
2023/01/27 07:34:48;;;;;;;;;;;;;;;2.35;100.00;98128.78;5100789;28;19924;-63
2023/01/27 07:37:15;;;;;;;;;;;;;;;2.36;100.00;98119.84;5101581;28;19992;-63
2023/01/27 07:39:42;;;;;;;;;;;;;;;2.43;100.00;98125.91;5101750;28;19924;-63
2023/01/27 07:42:08;;;;;;;;;;;;;;;2.49;100.00;98123.28;5100925;28;19971;-63
2023/01/27 07:44:34;;;;;;;;;;;;;;;2.38;100.00;98126.56;5097852;28;19992;-63
2023/01/27 07:47:02;;;;;;;;;;;;;;;2.36;100.00;98125.94;5098127;28;19952;-63
2023/01/27 07:49:29;;;;;;;;;;;;;;;2.24;100.00;98129.38;5101158;28;20004;-63
2023/01/27 07:51:55;;;;;;;;;;;;;;;2.31;100.00;98127.56;5101928;28;19931;-63
2023/01/27 07:54:21;;;;;;;;;;;;;;;2.05;100.00;98131.84;5099623;28;19958;-63
2023/01/27 07:56:48;;;;;;;;;;;;;;;1.85;100.00;98128.41;5097958;28;19958;-63
2023/01/27 07:59:14;;;;;;;;;;;;;;;1.81;100.00;98127.19;5099126;28;19943;-63
2023/01/27 08:01:42;;;;;;;;;;;;;;;1.93;100.00;98130.00;5101534;28;19931;-63
2023/01/27 08:04:10;;;;;;;;;;;;;;;1.95;100.00;98136.69;5101442;28;19923;-63
2023/01/27 08:06:37;;;;;;;;;;;;;;;2.00;100.00;98138.72;5103099;28;19921;-63
2023/01/27 08:09:04;;;;;;;;;;;;;;;1.95;100.00;98149.84;5098288;28;20007;-63
2023/01/27 08:11:30;;;;;;;;;;;;;;;1.81;100.00;98152.69;5100895;28;19928;-63
2023/01/27 08:13:57;;;;;;;;;;;;;;;1.99;100.00;98151.09;5101420;28;19924;-63
2023/01/27 08:16:23;;;;;;;;;;;;;;;2.11;100.00;98152.09;5099003;28;19952;-63
2023/01/27 08:18:49;;;;;;;;;;;;;;;1.94;100.00;98148.25;5097836;28;19935;-63
2023/01/27 08:21:17;;;;;;;;;;;;;;;2.00;100.00;98146.63;5097878;28;19995;-63
2023/01/27 08:23:44;;;;;;;;;;;;;;;1.76;100.00;98144.59;5101712;28;19940;-63
2023/01/27 08:26:10;;;;;;;;;;;;;;;1.87;100.00;98152.69;5100590;28;19974;-63
2023/01/27 08:28:37;;;;;;;;;;;;;;;1.85;100.00;98160.00;5097626;28;19952;-63
2023/01/27 08:31:04;;;;;;;;;;;;;;;1.97;100.00;98150.50;5097683;28;19924;-63
2023/01/27 08:33:30;;;;;;;;;;;;;;;1.65;100.00;98159.16;5100750;28;19939;-63
2023/01/27 08:35:57;;;;;;;;;;;;;;;1.45;100.00;98153.88;5106555;28;19992;-63
2023/01/27 08:38:24;;;;;;;;;;;;;;;1.31;100.00;98167.16;5098548;28;19924;-63
2023/01/27 08:40:51;;;;;;;;;;;;;;;1.50;100.00;98161.97;5097838;28;19925;-63
2023/01/27 08:43:18;;;;;;;;;;;;;;;1.41;100.00;98159.72;5099056;28;19967;-63
2023/01/27 08:45:45;;;;;;;;;;;;;;;1.66;100.00;98163.41;5101370;28;19996;-63
2023/01/27 08:48:12;;;;;;;;;;;;;;;1.61;100.00;98165.81;5100600;28;20530;-63
2023/01/27 08:50:38;;;;;;;;;;;;;;;1.63;100.00;98166.44;5097799;28;19964;-63
2023/01/27 08:53:05;;;;;;;;;;;;;;;1.69;100.00;98170.91;5097661;28;19947;-63
2023/01/27 08:55:32;;;;;;;;;;;;;;;1.42;100.00;98177.13;5100961;28;19924;-63
2023/01/27 08:57:59;;;;;;;;;;;;;;;1.60;100.00;98182.66;5100883;28;19955;-63
2023/01/27 09:00:25;;;;;;;;;;;;;;;1.54;100.00;98183.44;5098369;28;20009;-62
2023/01/27 09:02:52;;;;;;;;;;;;;;;1.45;100.00;98184.63;5097155;28;19928;-62
2023/01/27 09:05:19;;;;;;;;;;;;;;;1.55;100.00;98180.59;5104195;28;19924;-63
2023/01/27 09:07:46;;;;;;;;;;;;;;;1.71;100.00;98189.13;5101070;28;19946;-62
2023/01/27 09:10:13;;;;;;;;;;;;;;;1.69;100.00;98194.59;5100332;28;19923;-63
2023/01/27 09:12:40;;;;;;;;;;;;;;;1.28;100.00;98193.88;5097351;28;19967;-63
2023/01/27 09:15:07;;;;;;;;;;;;;;;1.28;100.00;98194.69;5097730;28;19965;-63
2023/01/27 09:17:34;;;;;;;;;;;;;;;1.25;100.00;98199.53;5089140;28;19931;-62
2023/01/27 09:20:00;;;;;;;;;;;;;;;1.41;100.00;98201.81;5088283;28;19983;-62
2023/01/27 09:22:26;;;;;;;;;;;;;;;1.44;100.00;98199.59;5090620;28;20015;-63
2023/01/27 09:24:53;;;;;;;;;;;;;;;1.47;100.00;98196.56;5092987;28;20070;-63
2023/01/27 09:27:19;;;;;;;;;;;;;;;1.46;100.00;98197.56;5092818;28;19992;-62
2023/01/27 09:29:47;;;;;;;;;;;;;;;1.33;100.00;98199.38;5092768;28;19924;-62
2023/01/27 09:32:13;;;;;;;;;;;;;;;1.40;100.00;98198.38;5092799;28;19960;-62
2023/01/27 09:34:40;;;;;;;;;;;;;;;1.33;100.00;98208.06;5094076;28;19964;-63
2023/01/27 09:37:08;;;;;;;;;;;;;;;1.26;100.00;98216.94;5104750;28;19951;-63
2023/01/27 09:39:36;;;;;;;;;;;;;;;1.38;100.00;98207.47;5100961;28;20361;-63
2023/01/27 09:42:23;;;;;;;;;;;;;;;1.28;100.00;98214.91;5100966;28;19924;-63
2023/01/27 09:45:05;;;;;;;;;;;;;;;1.46;100.00;98202.03;5096912;28;20022;-63
2023/01/27 09:47:42;;;;;;;;;;;;;;;1.63;100.00;98204.13;5101848;28;19924;-63
2023/01/27 09:50:19;;;;;;;;;;;;;;;1.71;100.00;98210.19;5104053;28;19948;-63
2023/01/27 09:53:01;;;;;;;;;;;;;;;2.04;100.00;98211.06;5100727;28;19924;-63
2023/01/27 09:55:33;;;;;;;;;;;;;;;2.21;100.00;98211.47;5100952;28;20873;-63
2023/01/27 09:58:03;;;;;;;;;;;;;;;2.21;100.00;98209.66;5103988;28;19967;-64
2023/01/27 10:00:37;;;;;;;;;;;;;;;1.89;100.00;98208.59;5101340;28;19951;-64
2023/01/27 10:03:12;;;;;;;;;;;;;;;1.81;100.00;98211.44;5100776;28;19932;-64
2023/01/27 10:05:57;;;;;;;;;;;;;;;1.81;100.00;98211.44;5101856;28;19955;-63
2023/01/27 10:08:35;;;;;;;;;;;;;;;1.98;100.00;98211.88;5101689;28;19943;-62
2023/01/27 10:11:08;;;;;;;;;;;;;;;1.66;100.00;98210.81;5100465;28;19975;-62
2023/01/27 10:13:42;;;;;;;;;;;;;;;1.62;100.00;98214.84;5100504;28;19947;-62
2023/01/27 10:16:16;;;;;;;;;;;;;;;1.69;100.00;98220.13;5100635;28;19963;-63
2023/01/27 10:18:53;;;;;;;;;;;;;;;1.77;100.00;98223.38;5103777;28;20340;-63
2023/01/27 10:21:22;;;;;;;;;;;;;;;1.78;100.00;98224.19;5101890;28;19924;-63
2023/01/27 10:23:55;;;;;;;;;;;;;;;1.76;100.00;98227.03;5100132;28;19925;-63
2023/01/27 10:26:26;;;;;;;;;;;;;;;1.85;100.00;98219.75;5102149;28;19952;-63
2023/01/27 10:28:55;;;;;;;;;;;;;;;1.82;100.00;98215.72;5085772;28;19924;-63
2023/01/27 10:31:25;;;;;;;;;;;;;;;1.86;100.00;98222.16;5101155;28;19939;-63
2023/01/27 10:33:54;;;;;;;;;;;;;;;1.77;100.00;98225.19;5099691;28;19939;-62
2023/01/27 10:36:27;;;;;;;;;;;;;;;1.80;100.00;98224.78;5108077;28;19924;-63
2023/01/27 10:38:58;;;;;;;;;;;;;;;1.91;100.00;98217.13;5099665;28;19924;-63
2023/01/27 10:41:29;;;;;;;;;;;;;;;1.91;100.00;98222.41;5101917;28;19984;-63
2023/01/27 10:44:04;;;;;;;;;;;;;;;1.69;100.00;98228.84;5103229;28;19946;-63
2023/01/27 10:46:34;;;;;;;;;;;;;;;1.88;100.00;98230.69;5099784;28;19959;-63
2023/01/27 10:49:04;;;;;;;;;;;;;;;2.15;100.00;98229.72;5099481;28;19960;-63
2023/01/27 10:51:32;;;;;;;;;;;;;;;2.18;100.00;98229.31;5102678;28;19959;-63
2023/01/27 10:54:01;;;;;;;;;;;;;;;1.92;100.00;98223.22;5102861;28;19928;-63
2023/01/27 10:56:33;;;;;;;;;;;;;;;1.81;100.00;98221.16;5100090;28;19924;-63
2023/01/27 10:59:03;;;;;;;;;;;;;;;1.93;100.00;98220.38;5099257;28;19925;-63
2023/01/27 11:01:32;;;;;;;;;;;;;;;1.85;100.00;98220.56;5102275;28;19924;-63
2023/01/27 11:04:01;;;;;;;;;;;;;;;1.92;100.00;98217.94;5102852;28;19946;-63
2023/01/27 11:06:30;;;;;;;;;;;;;;;1.76;100.00;98216.50;5104986;28;19963;-63
2023/01/27 11:09:04;;;;;;;;;;;;;;;1.75;100.00;98216.69;5099084;28;19924;-63
2023/01/27 11:14:23;;;;;;;;;;;;;;;1.58;100.00;98217.03;5096927;28;19920;-63
2023/01/27 11:16:51;;;;;;;;;;;;;;;1.62;100.00;98212.19;5098742;28;19920;-63
2023/01/27 11:19:22;;;;;;;;;;;;;;;1.68;100.00;98206.13;5100197;28;19983;-63
2023/01/27 11:21:51;;;;;;;;;;;;;;;1.80;100.00;98201.91;5102282;28;19957;-63
2023/01/27 11:24:22;;;;;;;;;;;;;;;1.78;100.00;98201.31;5100728;28;19936;-63
2023/01/27 11:26:52;;;;;;;;;;;;;;;1.55;100.00;98198.19;5098754;28;19936;-63
2023/01/27 11:29:21;;;;;;;;;;;;;;;1.65;100.00;98206.53;5098820;28;19924;-63
2023/01/27 11:31:51;;;;;;;;;;;;;;;1.80;100.00;98201.91;5101985;28;19984;-63
2023/01/27 11:34:21;;;;;;;;;;;;;;;1.86;100.00;98211.63;5100714;28;19924;-63
2023/01/27 11:36:48;;;;;;;;;;;;;;;2.09;100.00;98206.81;5085937;28;19929;-63
2023/01/27 11:39:17;;;;;;;;;;;;;;;2.03;100.00;98205.00;5099172;28;19929;-63
2023/01/27 11:41:47;;;;;;;;;;;;;;;2.21;100.00;98206.19;5101807;28;19928;-63
2023/01/27 11:44:18;;;;;;;;;;;;;;;2.34;100.00;98196.47;5100571;28;19928;-63
2023/01/27 11:46:45;;;;;;;;;;;;;;;2.27;100.00;98192.22;5098125;28;19924;-63
2023/01/27 11:49:12;;;;;;;;;;;;;;;2.11;100.00;98188.97;5099032;28;19920;-64
2023/01/27 11:51:39;;;;;;;;;;;;;;;2.10;100.00;98184.72;5101969;28;19950;-64
2023/01/27 11:54:08;;;;;;;;;;;;;;;2.26;100.00;98190.63;5084018;28;19920;-64
2023/01/27 11:56:37;;;;;;;;;;;;;;;2.22;100.00;98190.22;5098300;28;19952;-64
2023/01/27 11:59:07;;;;;;;;;;;;;;;2.21;100.00;98190.41;5098526;28;19952;-64
2023/01/27 12:01:39;;;;;;;;;;;;;;;2.03;100.00;98191.81;5098388;28;19936;-64
2023/01/27 12:04:09;;;;;;;;;;;;;;;1.76;100.00;98187.53;5098535;28;19942;-64
2023/01/27 12:06:44;;;;;;;;;;;;;;;1.61;100.00;98184.25;5103823;28;19925;-63
2023/01/27 12:09:29;;;;;;;;;;;;;;;1.73;100.00;98169.50;5098670;28;19947;-63
2023/01/27 12:12:09;;;;;;;;;;;;;;;1.59;100.00;98175.75;5101726;28;19924;-63
2023/01/27 12:14:35;;;;;;;;;;;;;;;1.58;100.00;98179.38;5105594;28;19984;-63
2023/01/27 12:17:03;;;;;;;;;;;;;;;1.56;100.00;98182.22;5089694;28;19985;-63
2023/01/27 12:19:31;;;;;;;;;;;;;;;1.68;100.00;98173.72;5089476;28;19960;-63
2023/01/27 12:21:58;;;;;;;;;;;;;;;1.86;100.00;98172.13;5089404;28;19932;-63
2023/01/27 12:24:27;;;;;;;;;;;;;;;1.94;100.00;98165.88;5089609;28;19932;-63
2023/01/27 12:26:55;;;;;;;;;;;;;;;1.92;100.00;98166.06;5079902;28;19986;-62
2023/01/27 12:29:26;;;;;;;;;;;;;;;1.88;100.00;98170.13;5099450;28;19924;-63
2023/01/27 12:31:53;;;;;;;;;;;;;;;2.02;100.00;98158.56;5101339;28;20044;-63
2023/01/27 12:34:23;;;;;;;;;;;;;;;1.94;100.00;98157.97;5099384;28;19924;-63
2023/01/27 12:36:51;;;;;;;;;;;;;;;1.84;100.00;98168.09;5102952;28;19960;-63
2023/01/27 12:39:30;;;;;;;;;;;;;;;1.90;100.00;98162.84;5098846;28;19928;-63
2023/01/27 12:41:56;;;;;;;;;;;;;;;2.01;100.00;98164.06;5100678;28;19928;-63
2023/01/27 12:44:26;;;;;;;;;;;;;;;1.92;100.00;98152.91;5098957;28;19928;-63
2023/01/27 12:46:58;;;;;;;;;;;;;;;1.88;100.00;98145.63;5097649;28;19924;-63
2023/01/27 12:49:30;;;;;;;;;;;;;;;1.86;100.00;98153.72;5099968;28;20028;-63
2023/01/27 12:51:56;;;;;;;;;;;;;;;1.94;100.00;98150.88;5101597;28;19935;-63
2023/01/27 12:54:24;;;;;;;;;;;;;;;1.74;100.00;98146.59;5098972;28;19987;-63
2023/01/27 12:56:51;;;;;;;;;;;;;;;1.72;100.00;98153.91;5098266;28;19971;-64
2023/01/27 12:59:20;;;;;;;;;;;;;;;1.75;100.00;98146.41;5102476;28;19935;-63
2023/01/27 13:01:59;;;;;;;;;;;;;;;1.78;100.00;98151.28;5104461;28;19928;-63
2023/01/27 13:04:26;;;;;;;;;;;;;;;1.76;100.00;98149.88;5101872;28;19931;-63
2023/01/27 13:06:55;;;;;;;;;;;;;;;1.76;100.00;98155.13;5106416;28;19928;-62
2023/01/27 13:09:25;;;;;;;;;;;;;;;1.59;100.00;98155.50;5102761;28;20471;-63
2023/01/27 13:11:52;;;;;;;;;;;;;;;1.68;100.00;98148.22;5104813;28;19943;-63
2023/01/27 13:14:18;;;;;;;;;;;;;;;1.71;100.00;98139.91;5103133;28;19957;-63
2023/01/27 13:16:50;;;;;;;;;;;;;;;1.67;100.00;98146.63;5101108;28;20016;-63
2023/01/27 13:19:18;;;;;;;;;;;;;;;1.45;100.00;98164.41;5102256;28;19925;-63
2023/01/27 13:21:46;;;;;;;;;;;;;;;1.46;100.00;98155.47;5104700;28;19931;-63
2023/01/27 13:24:14;;;;;;;;;;;;;;;1.44;100.00;98156.69;5104113;28;19963;-63
2023/01/27 13:26:41;;;;;;;;;;;;;;;1.35;100.00;98160.50;5101062;28;19920;-63
2023/01/27 13:29:13;;;;;;;;;;;;;;;1.41;100.00;98157.09;5101035;28;19924;-63
2023/01/27 13:31:42;;;;;;;;;;;;;;;1.53;100.00;98150.22;5100921;28;19924;-63
2023/01/27 13:34:13;;;;;;;;;;;;;;;1.40;100.00;98155.44;5100804;28;19930;-63